Time;durP1;ratioP1;P1;durP2;ratioP2;P2;SDS_P1;SDS_P2;PMS_P1;PMS_P2;Temp;Humidity;BMP_temperature;BMP_pressure;BME280_temperature;BME280_humidity;BME280_pressure;Samples;Min_cycle;Max_cycle;Signal;HPM_P1;HPM_P2
2023/03/06 00:01:03;;;;;;;;;;;2.00;92.50;;;;;;5035215;28;20068;-48
2023/03/06 00:03:32;;;;;;;3.20;1.00;;;2.00;92.50;;;;;;5034340;28;20312;-47
2023/03/06 00:06:00;;;;;;;4.40;1.42;;;2.00;92.60;;;;;;5040588;28;20053;-46
2023/03/06 00:08:28;;;;;;;3.75;1.75;;;2.00;92.50;;;;;;5054298;28;20024;-47
2023/03/06 00:10:55;;;;;;;4.20;1.50;;;2.00;92.50;;;;;;5050010;28;20029;-47
2023/03/06 00:13:28;;;;;;;6.70;1.80;;;2.00;92.60;;;;;;5034291;28;20033;-46
2023/03/06 00:15:57;;;;;;;6.15;2.00;;;2.00;92.60;;;;;;5033613;28;20068;-47
2023/03/06 00:18:23;;;;;;;3.10;1.70;;;2.00;92.60;;;;;;5032327;28;20048;-46
2023/03/06 00:20:50;;;;;;;5.07;2.35;;;2.00;92.60;;;;;;5048262;28;20447;-47
2023/03/06 00:23:17;;;;;;;5.38;2.53;;;2.10;92.60;;;;;;5053085;28;20041;-50
2023/03/06 00:25:44;;;;;;;5.85;2.42;;;2.00;92.60;;;;;;5050993;28;20553;-46
2023/03/06 00:28:13;;;;;;;4.05;2.90;;;2.00;92.50;;;;;;5032923;28;20076;-46
2023/03/06 00:30:39;;;;;;;4.57;3.78;;;2.00;92.60;;;;;;5033880;28;20075;-46
2023/03/06 00:33:05;;;;;;;6.00;4.22;;;2.00;92.60;;;;;;5049991;28;20453;-48
2023/03/06 00:35:32;;;;;;;6.25;4.93;;;2.00;92.70;;;;;;5053690;28;20029;-47
2023/03/06 00:37:58;;;;;;;9.07;4.82;;;2.00;92.70;;;;;;5048071;28;20091;-46
2023/03/06 00:40:25;;;;;;;6.32;4.88;;;2.00;92.60;;;;;;5033688;28;20144;-48
2023/03/06 00:42:50;;;;;;;6.18;5.30;;;1.90;92.60;;;;;;5033501;28;20438;-46
2023/03/06 00:45:17;;;;;;;7.80;5.30;;;1.90;92.70;;;;;;5034730;28;20040;-46
2023/03/06 00:47:45;;;;;;;7.43;5.35;;;1.90;92.80;;;;;;5053437;28;20024;-46
2023/03/06 00:50:13;;;;;;;6.10;5.25;;;1.90;92.70;;;;;;5051616;28;20025;-47
2023/03/06 00:52:40;;;;;;;7.75;6.32;;;1.90;92.70;;;;;;5052732;28;20031;-47
2023/03/06 00:55:09;;;;;;;8.55;5.82;;;1.90;92.70;;;;;;5033368;28;20367;-46
2023/03/06 00:57:37;;;;;;;6.28;5.40;;;1.90;92.80;;;;;;5039143;28;20024;-46
2023/03/06 01:00:10;;;;;;;7.70;5.93;;;1.90;92.80;;;;;;5051899;28;20025;-46
2023/03/06 01:02:39;;;;;;;8.38;6.60;;;2.00;92.80;;;;;;5051709;28;20033;-46
2023/03/06 01:05:06;;;;;;;9.02;6.22;;;1.90;92.80;;;;;;5046253;28;20044;-46
2023/03/06 01:07:35;;;;;;;7.75;5.68;;;1.90;92.80;;;;;;5052118;28;20049;-46
2023/03/06 01:10:10;;;;;;;6.05;5.05;;;1.90;92.70;;;;;;5052618;28;20525;-46
2023/03/06 01:12:37;;;;;;;8.18;6.68;;;1.90;92.80;;;;;;5048605;28;20534;-46
2023/03/06 01:15:04;;;;;;;9.50;6.30;;;1.90;92.80;;;;;;5051257;28;20048;-46
2023/03/06 01:17:31;;;;;;;8.30;5.82;;;1.90;92.80;;;;;;5051445;28;20056;-46
2023/03/06 01:20:04;;;;;;;8.45;5.72;;;1.90;92.70;;;;;;5049885;28;20031;-46
2023/03/06 01:22:32;;;;;;;8.45;6.28;;;1.90;92.70;;;;;;5052231;28;20071;-48
2023/03/06 01:24:59;;;;;;;7.80;5.57;;;1.90;92.80;;;;;;5051185;28;20076;-46
2023/03/06 01:27:25;;;;;;;11.02;6.28;;;1.90;92.90;;;;;;5051544;28;20025;-48
2023/03/06 01:29:51;;;;;;;7.53;6.07;;;1.90;92.90;;;;;;5045382;28;20049;-46
2023/03/06 01:32:20;;;;;;;8.35;6.05;;;1.90;92.90;;;;;;5046541;28;20426;-46
2023/03/06 01:34:51;;;;;;;7.20;6.00;;;1.90;92.80;;;;;;5051021;28;20090;-48
2023/03/06 01:37:18;;;;;;;7.38;5.93;;;1.90;92.80;;;;;;5046318;28;20049;-47
2023/03/06 01:39:43;;;;;;;7.07;5.53;;;1.90;92.80;;;;;;5031221;28;20037;-48
2023/03/06 01:42:12;;;;;;;7.75;6.05;;;1.90;92.90;;;;;;5030985;28;20035;-48
2023/03/06 01:44:56;;;;;;;8.52;6.43;;;1.90;92.80;;;;;;5038745;28;20078;-45
2023/03/06 01:47:23;;;;;;;10.00;6.15;;;1.90;92.80;;;;;;5033097;28;20029;-46
2023/03/06 01:49:51;;;;;;;7.95;5.90;;;1.90;92.80;;;;;;5039826;28;20107;-46
2023/03/06 01:52:27;;;;;;;8.45;6.18;;;1.90;92.70;;;;;;5055930;28;20069;-46
2023/03/06 01:55:05;;;;;;;8.40;5.88;;;1.90;92.80;;;;;;5037004;28;20477;-47
2023/03/06 01:57:42;;;;;;;8.27;5.82;;;1.80;92.80;;;;;;5036018;28;20045;-46
2023/03/06 02:00:11;;;;;;;8.73;5.85;;;1.80;92.80;;;;;;5037299;28;20035;-48
2023/03/06 02:02:41;;;;;;;8.13;5.05;;;1.90;92.90;;;;;;5036122;28;20041;-47
2023/03/06 02:05:11;;;;;;;7.95;5.85;;;1.80;92.90;;;;;;5042479;28;20048;-46
2023/03/06 02:07:41;;;;;;;7.50;5.82;;;1.80;92.80;;;;;;5056028;28;20035;-47
2023/03/06 02:10:09;;;;;;;9.90;5.00;;;1.80;92.80;;;;;;5055173;28;20048;-50
2023/03/06 02:12:38;;;;;;;7.72;5.20;;;1.80;92.80;;;;;;5055831;28;20042;-46
2023/03/06 02:15:06;;;;;;;7.97;5.22;;;1.80;92.80;;;;;;5049796;28;20045;-48
2023/03/06 02:17:34;;;;;;;6.27;4.73;;;1.70;92.70;;;;;;5035875;28;20025;-46
2023/03/06 02:20:03;;;;;;;6.40;3.83;;;1.80;92.90;;;;;;5036861;28;20363;-47
2023/03/06 02:22:51;;;;;;;6.22;4.45;;;1.80;92.80;;;;;;5055763;28;20052;-46
2023/03/06 02:25:39;;;;;;;8.02;4.55;;;1.80;92.80;;;;;;5054785;28;20045;-47
2023/03/06 02:28:12;;;;;;;5.97;3.67;;;1.80;92.80;;;;;;5051958;28;20104;-46
2023/03/06 02:30:38;;;;;;;7.15;4.38;;;1.70;92.80;;;;;;5054202;28;20025;-47
2023/03/06 02:33:05;;;;;;;10.05;4.82;;;1.70;92.70;;;;;;5054473;28;20091;-47
2023/03/06 02:35:35;;;;;;;6.93;4.53;;;1.70;92.80;;;;;;5054243;28;20346;-47
2023/03/06 02:38:09;;;;;;;6.97;4.53;;;1.70;92.80;;;;;;5047859;28;20033;-47
2023/03/06 02:40:40;;;;;;;5.50;3.85;;;1.70;92.90;;;;;;5054955;28;20076;-47
2023/03/06 02:43:09;;;;;;;7.45;4.55;;;1.70;92.80;;;;;;5051144;28;20087;-47
2023/03/06 02:45:44;;;;;;;8.95;4.20;;;1.70;92.80;;;;;;5034834;28;20033;-48
2023/03/06 02:48:12;;;;;;;6.90;4.32;;;1.70;92.80;;;;;;5028319;28;20060;-47
2023/03/06 02:50:40;;;;;;;6.77;4.47;;;1.70;92.70;;;;;;5053140;28;20504;-48
2023/03/06 02:53:07;;;;;;;6.55;4.38;;;1.70;92.80;;;;;;5043629;28;20041;-47
2023/03/06 02:55:36;;;;;;;6.72;4.20;;;1.70;92.80;;;;;;5035396;28;20049;-49
2023/03/06 02:58:03;;;;;;;7.03;4.85;;;1.70;92.80;;;;;;5035477;28;20057;-50
2023/03/06 03:00:31;;;;;;;6.90;3.80;;;1.70;92.70;;;;;;5028420;28;20114;-48
2023/03/06 03:02:58;;;;;;;6.15;4.00;;;1.60;92.70;;;;;;5050697;28;20071;-49
2023/03/06 03:05:25;;;;;;;4.88;3.22;;;1.60;92.70;;;;;;5035257;28;20053;-47
2023/03/06 03:07:52;;;;;;;7.18;3.92;;;1.60;92.60;;;;;;5055597;28;20020;-51
2023/03/06 03:10:22;;;;;;;6.88;4.18;;;1.60;92.70;;;;;;5054924;28;20017;-48
2023/03/06 03:12:49;;;;;;;6.00;3.67;;;1.50;92.60;;;;;;5051621;28;20021;-49
2023/03/06 03:15:18;;;;;;;6.75;3.97;;;1.50;92.60;;;;;;5055294;28;20438;-47
2023/03/06 03:17:43;;;;;;;4.78;2.85;;;1.50;92.60;;;;;;5042060;28;20036;-50
2023/03/06 03:20:13;;;;;;;6.60;4.25;;;1.50;92.60;;;;;;5034235;28;20363;-48
2023/03/06 03:22:42;;;;;;;7.72;4.53;;;1.50;92.70;;;;;;5049518;28;20040;-46
2023/03/06 03:25:18;;;;;;;5.78;3.50;;;1.50;92.60;;;;;;5054710;28;20033;-48
2023/03/06 03:27:44;;;;;;;8.45;4.32;;;1.50;92.70;;;;;;5054192;28;20132;-50
2023/03/06 03:30:12;;;;;;;9.98;5.80;;;1.50;92.80;;;;;;5041298;28;20112;-47
2023/03/06 03:32:39;;;;;;;36.53;14.63;;;1.50;92.80;;;;;;5034841;28;20028;-47
2023/03/06 03:35:10;;;;;;;24.23;10.52;;;1.50;92.70;;;;;;5033976;28;20044;-49
2023/03/06 03:37:36;;;;;;;10.27;5.53;;;1.50;92.70;;;;;;5048786;28;20063;-49
2023/03/06 03:40:06;;;;;;;7.68;4.15;;;1.50;92.80;;;;;;5053984;28;20040;-51
2023/03/06 03:42:36;;;;;;;5.82;2.95;;;1.40;92.60;;;;;;5043818;28;20041;-48
2023/03/06 03:45:03;;;;;;;4.95;2.30;;;1.30;92.70;;;;;;5034802;28;20419;-55
2023/03/06 03:47:30;;;;;;;4.10;2.22;;;1.30;92.80;;;;;;5033934;28;20060;-50
2023/03/06 03:49:58;;;;;;;5.50;2.67;;;1.30;92.80;;;;;;5049012;28;20052;-49
2023/03/06 03:52:25;;;;;;;6.45;3.35;;;1.40;93.00;;;;;;5053756;28;20416;-56
2023/03/06 03:54:53;;;;;;;6.30;4.22;;;1.40;93.00;;;;;;5054325;28;20029;-51
2023/03/06 03:57:19;;;;;;;6.78;3.55;;;1.40;93.00;;;;;;5053493;28;20056;-51
2023/03/06 03:59:47;;;;;;;7.15;3.80;;;1.40;92.90;;;;;;5048817;28;20034;-53
2023/03/06 04:02:13;;;;;;;6.28;3.72;;;1.40;92.90;;;;;;5036758;28;20033;-53
2023/03/06 04:04:42;;;;;;;6.72;2.97;;;1.30;92.90;;;;;;5041082;28;20028;-53
2023/03/06 04:07:09;;;;;;;5.20;3.22;;;1.40;93.00;;;;;;5047536;28;20063;-50
2023/03/06 04:09:38;;;;;;;7.40;2.40;;;1.40;93.00;;;;;;5054143;28;20025;-48
2023/03/06 04:12:06;;;;;;;4.35;2.20;;;1.40;92.90;;;;;;5039000;28;20033;-47
2023/03/06 04:14:31;;;;;;;4.05;2.10;;;1.30;92.90;;;;;;5032833;28;20366;-49
2023/03/06 04:17:00;;;;;;;4.57;2.28;;;1.30;92.70;;;;;;5033808;28;20033;-46
2023/03/06 04:19:28;;;;;;;4.53;2.03;;;1.30;92.80;;;;;;5040024;28;20029;-46
2023/03/06 04:21:56;;;;;;;3.15;1.70;;;1.30;92.80;;;;;;5047331;28;20040;-44
2023/03/06 04:24:24;;;;;;;4.35;1.95;;;1.20;92.70;;;;;;5051770;28;20427;-45
2023/03/06 04:26:54;;;;;;;4.18;2.33;;;1.20;92.80;;;;;;5041232;28;20083;-45
2023/03/06 04:29:20;;;;;;;4.45;1.73;;;1.20;92.70;;;;;;5033871;28;20044;-44
2023/03/06 04:31:51;;;;;;;4.10;1.85;;;1.20;92.70;;;;;;5049061;28;20025;-43
2023/03/06 04:34:19;;;;;;;3.83;1.70;;;1.10;92.70;;;;;;5053827;28;20449;-44
2023/03/06 04:36:46;;;;;;;3.88;1.92;;;1.10;92.80;;;;;;5051890;28;20405;-44
2023/03/06 04:39:13;;;;;;;4.82;2.00;;;1.10;92.70;;;;;;5052290;28;20100;-43
2023/03/06 04:41:42;;;;;;;2.92;1.35;;;1.10;92.80;;;;;;5053460;28;20513;-44
2023/03/06 04:44:11;;;;;;;3.08;1.63;;;1.10;92.80;;;;;;5053672;28;20056;-43
2023/03/06 04:46:38;;;;;;;3.53;1.83;;;1.10;92.70;;;;;;5049138;28;20041;-44
2023/03/06 04:49:12;;;;;;;3.92;1.40;;;1.10;92.70;;;;;;5033522;28;20041;-44
2023/03/06 04:51:39;;;;;;;3.25;1.40;;;1.10;92.80;;;;;;5039745;28;20052;-43
2023/03/06 04:54:09;;;;;;;3.97;1.77;;;1.10;92.80;;;;;;5043650;28;20026;-45
2023/03/06 04:56:35;;;;;;;3.28;1.60;;;1.10;92.70;;;;;;5033722;28;20030;-44
2023/03/06 04:59:02;;;;;;;3.25;1.77;;;1.10;92.70;;;;;;5039932;28;20032;-43
2023/03/06 05:01:30;;;;;;;3.47;1.83;;;1.00;92.70;;;;;;5052368;28;20044;-43
2023/03/06 05:03:58;;;;;;;4.93;2.15;;;1.00;92.70;;;;;;5051699;28;20035;-44
2023/03/06 05:06:25;;;;;;;4.43;2.42;;;1.00;92.80;;;;;;5051377;28;20041;-45
2023/03/06 05:08:54;;;;;;;3.83;1.92;;;1.00;92.80;;;;;;5051424;28;20029;-43
2023/03/06 05:11:20;;;;;;;4.65;2.10;;;1.10;92.90;;;;;;5053388;28;20025;-45
2023/03/06 05:13:48;;;;;;;6.10;2.10;;;1.00;92.80;;;;;;5052008;28;20060;-45
2023/03/06 05:16:16;;;;;;;6.55;2.28;;;1.00;92.80;;;;;;5043300;28;20113;-43
2023/03/06 05:18:45;;;;;;;3.97;1.85;;;1.00;92.80;;;;;;5051527;28;20363;-43
2023/03/06 05:21:12;;;;;;;4.28;1.98;;;1.00;92.70;;;;;;5051642;28;20382;-43
2023/03/06 05:23:38;;;;;;;4.60;2.22;;;1.00;92.70;;;;;;5051482;28;20033;-43
2023/03/06 05:26:12;;;;;;;9.30;2.55;;;1.00;92.70;;;;;;5051552;28;20029;-43
2023/03/06 05:28:39;;;;;;;7.40;2.53;;;0.90;92.70;;;;;;5051921;28;20028;-44
2023/03/06 05:31:07;;;;;;;4.85;2.42;;;0.90;92.70;;;;;;5025260;28;20459;-44
2023/03/06 05:33:36;;;;;;;6.72;2.50;;;0.90;92.70;;;;;;5052340;28;20596;-44
2023/03/06 05:36:03;;;;;;;5.00;2.33;;;0.90;92.70;;;;;;5050280;28;20434;-43
2023/03/06 05:38:31;;;;;;;5.82;2.63;;;0.90;92.70;;;;;;5051753;28;20322;-46
2023/03/06 05:40:58;;;;;;;6.68;3.20;;;0.80;92.60;;;;;;5048507;28;20305;-48
2023/03/06 05:43:26;;;;;;;5.03;2.65;;;0.80;92.70;;;;;;5031622;28;20466;-44
2023/03/06 05:46:03;;;;;;;4.47;2.50;;;0.80;92.70;;;;;;5031569;28;20048;-43
2023/03/06 05:48:30;;;;;;;4.57;2.50;;;0.70;92.60;;;;;;5045525;28;20041;-44
2023/03/06 05:51:00;;;;;;;7.07;3.00;;;0.70;92.60;;;;;;5051546;28;20044;-43
2023/03/06 05:53:29;;;;;;;5.07;3.08;;;0.70;92.70;;;;;;5051716;28;20064;-45
2023/03/06 05:56:07;;;;;;;6.38;3.17;;;0.70;92.70;;;;;;5048972;28;20355;-45
2023/03/06 05:58:36;;;;;;;7.63;3.28;;;0.60;92.60;;;;;;5035007;28;20041;-44
2023/03/06 06:01:15;;;;;;;8.23;4.28;;;0.70;92.70;;;;;;5052618;28;20029;-44
2023/03/06 06:03:42;;;;;;;6.93;3.00;;;0.60;92.70;;;;;;5030081;28;20038;-47
2023/03/06 06:06:13;;;;;;;6.32;4.03;;;0.60;92.70;;;;;;5034542;28;20109;-45
2023/03/06 06:08:39;;;;;;;12.10;4.88;;;0.60;92.70;;;;;;5051132;28;20403;-47
2023/03/06 06:11:09;;;;;;;9.20;3.33;;;0.60;92.70;;;;;;5041358;28;20026;-46
2023/03/06 06:13:37;;;;;;;6.90;3.20;;;0.60;92.80;;;;;;5031395;28;20046;-45
2023/03/06 06:16:18;;;;;;;8.52;3.40;;;0.60;92.70;;;;;;5031484;28;20033;-46
2023/03/06 06:18:45;;;;;;;7.03;3.45;;;0.60;92.60;;;;;;5031586;28;20133;-44
2023/03/06 06:21:13;;;;;;;5.25;2.92;;;0.50;92.50;;;;;;5048005;28;20034;-44
2023/03/06 06:23:41;;;;;;;5.65;3.03;;;0.50;92.60;;;;;;5032868;28;20033;-45
2023/03/06 06:26:08;;;;;;;5.88;3.22;;;0.50;92.60;;;;;;5031656;28;20485;-43
2023/03/06 06:28:35;;;;;;;7.28;2.55;;;0.50;92.60;;;;;;5048248;28;20037;-44
2023/03/06 06:31:07;;;;;;;6.10;2.97;;;0.60;92.80;;;;;;5032438;28;20083;-44
2023/03/06 06:33:36;;;;;;;5.43;2.60;;;0.60;92.70;;;;;;5031196;28;20034;-44
2023/03/06 06:36:03;;;;;;;5.32;2.60;;;0.60;92.80;;;;;;5037700;28;20021;-44
2023/03/06 06:38:30;;;;;;;4.72;2.30;;;0.60;92.70;;;;;;5068770;28;20064;-43
2023/03/06 06:40:57;;;;;;;3.88;2.30;;;0.70;92.80;;;;;;5056069;28;20036;-45
2023/03/06 06:43:27;;;;;;;5.18;2.45;;;0.80;92.70;;;;;;5050985;28;20052;-44
2023/03/06 06:46:00;;;;;;;5.35;2.83;;;0.80;92.60;;;;;;5054680;28;20045;-43
2023/03/06 06:48:27;;;;;;;6.05;3.22;;;0.90;92.70;;;;;;5055014;28;20078;-43
2023/03/06 06:51:00;;;;;;;5.63;2.95;;;0.90;92.50;;;;;;5043831;28;20035;-44
2023/03/06 06:53:27;;;;;;;4.90;2.42;;;0.90;92.50;;;;;;5053592;28;20060;-44
2023/03/06 06:55:54;;;;;;;7.35;2.42;;;0.90;92.40;;;;;;5053281;28;20339;-44
2023/03/06 06:58:20;;;;;;;5.07;2.20;;;0.90;92.40;;;;;;5055681;28;20025;-44
2023/03/06 07:00:47;;;;;;;4.80;2.35;;;0.90;92.20;;;;;;5035688;28;20421;-43
2023/03/06 07:03:14;;;;;;;7.20;3.17;;;0.90;92.20;;;;;;5044599;28;20083;-43
2023/03/06 07:05:42;;;;;;;4.88;2.08;;;0.90;92.20;;;;;;5051471;28;20080;-45
2023/03/06 07:08:09;;;;;;;3.67;1.80;;;0.90;92.10;;;;;;5050461;28;20056;-44
2023/03/06 07:10:38;;;;;;;4.90;2.30;;;0.90;92.00;;;;;;5034314;28;20428;-44
2023/03/06 07:13:06;;;;;;;5.53;2.13;;;0.90;92.00;;;;;;5050667;28;20402;-44
2023/03/06 07:15:33;;;;;;;3.28;1.77;;;0.90;92.00;;;;;;5035325;28;20279;-45
2023/03/06 07:18:02;;;;;;;4.65;2.33;;;0.90;92.00;;;;;;5053847;28;20037;-44
2023/03/06 07:20:30;;;;;;;5.65;2.08;;;0.90;91.80;;;;;;5054137;28;20047;-44
2023/03/06 07:22:58;;;;;;;3.75;2.30;;;0.90;91.90;;;;;;5055021;28;20082;-45
2023/03/06 07:25:25;;;;;;;5.63;2.30;;;0.90;91.80;;;;;;5053732;28;20068;-43
2023/03/06 07:27:52;;;;;;;3.38;1.83;;;0.90;91.70;;;;;;5054178;28;20029;-46
2023/03/06 07:30:22;;;;;;;4.78;2.83;;;0.90;91.70;;;;;;5054985;28;20048;-45
2023/03/06 07:33:00;;;;;;;5.00;2.50;;;0.90;91.80;;;;;;5053737;28;20071;-49
2023/03/06 07:35:27;;;;;;;5.68;3.03;;;0.90;91.80;;;;;;5035002;28;20351;-46
2023/03/06 07:37:54;;;;;;;5.68;2.38;;;1.00;91.80;;;;;;5054128;28;20033;-46
2023/03/06 07:40:21;;;;;;;5.28;2.35;;;1.10;91.80;;;;;;5054966;28;20029;-46
2023/03/06 07:42:52;;;;;;;4.10;2.80;;;1.10;91.80;;;;;;5039871;28;20025;-47
2023/03/06 07:45:24;;;;;;;7.57;2.80;;;1.20;91.80;;;;;;5034732;28;20033;-44
2023/03/06 07:47:53;;;;;;;5.05;2.63;;;1.30;91.80;;;;;;5045607;28;20107;-44
2023/03/06 07:50:21;;;;;;;6.43;3.15;;;1.40;91.70;;;;;;5053813;28;20040;-44
2023/03/06 07:52:50;;;;;;;5.10;2.72;;;1.50;91.60;;;;;;5051675;28;20048;-45
2023/03/06 07:55:17;;;;;;;6.00;2.70;;;1.70;91.50;;;;;;5038667;28;20104;-45
2023/03/06 07:57:44;;;;;;;5.55;2.58;;;2.00;91.50;;;;;;5034527;28;20037;-47
2023/03/06 08:00:14;;;;;;;5.28;2.10;;;2.30;91.00;;;;;;5025128;28;20447;-46
2023/03/06 08:02:42;;;;;;;7.45;2.53;;;2.50;90.40;;;;;;5035328;28;20037;-49
2023/03/06 08:05:15;;;;;;;3.92;2.00;;;2.70;90.10;;;;;;5053972;28;20033;-51
2023/03/06 08:07:44;;;;;;;5.65;2.00;;;3.10;89.50;;;;;;5035281;28;20527;-50
2023/03/06 08:10:13;;;;;;;4.78;1.98;;;3.40;89.00;;;;;;5053321;28;20025;-52
2023/03/06 08:12:43;;;;;;;4.95;2.78;;;3.50;88.20;;;;;;5039271;28;20039;-53
2023/03/06 08:15:10;;;;;;;3.92;1.70;;;3.70;87.80;;;;;;5050171;28;20071;-49
2023/03/06 08:17:39;;;;;;;3.75;2.13;;;4.00;87.70;;;;;;5054018;28;20101;-51
2023/03/06 08:20:09;;;;;;;4.07;1.73;;;4.10;86.40;;;;;;5046007;28;20065;-53
2023/03/06 08:22:38;;;;;;;;;;;4.30;85.70;;;;;;5046430;28;20059;-54
2023/03/06 08:25:05;;;;;;;3.75;1.98;;;4.60;85.50;;;;;;5053912;28;19912;-55
2023/03/06 08:27:45;;;;;;;4.10;1.73;;;4.70;85.10;;;;;;5052441;28;20115;-56
2023/03/06 08:30:18;;;;;;;3.53;1.88;;;4.90;83.70;;;;;;5039433;28;20347;-59
2023/03/06 08:32:49;;;;;;;3.25;1.70;;;5.00;84.20;;;;;;5041766;28;20045;-57
2023/03/06 08:35:16;;;;;;;2.53;1.23;;;5.30;84.00;;;;;;5052517;28;20044;-60
2023/03/06 08:37:44;;;;;;;6.40;1.48;;;5.60;83.70;;;;;;5051964;28;20113;-59
2023/03/06 08:40:12;;;;;;;4.88;1.35;;;5.60;83.20;;;;;;5038023;28;20509;-61
2023/03/06 08:42:38;;;;;;;4.82;1.40;;;5.70;82.20;;;;;;5033628;28;20048;-61
2023/03/06 08:45:08;;;;;;;2.90;1.25;;;5.90;82.40;;;;;;5033774;28;20033;-61
2023/03/06 08:47:35;;;;;;;3.72;2.08;;;6.20;82.00;;;;;;5050003;28;20033;-57
2023/03/06 08:50:02;;;;;;;5.40;1.60;;;6.30;80.80;;;;;;5043798;28;20041;-54
2023/03/06 08:52:29;;;;;;;4.88;1.85;;;5.90;81.90;;;;;;5043097;28;20021;-49
2023/03/06 08:54:56;;;;;;;3.55;1.30;;;6.30;82.30;;;;;;5043785;28;20358;-47
2023/03/06 08:57:22;;;;;;;5.55;2.25;;;6.70;81.70;;;;;;5053449;28;20104;-46
2023/03/06 08:59:49;;;;;;;5.70;1.38;;;6.90;80.30;;;;;;5050250;28;20112;-45
2023/03/06 09:02:16;;;;;;;3.08;0.90;;;6.80;79.40;;;;;;5046481;28;20080;-44
2023/03/06 09:04:41;;;;;;;2.28;1.23;;;7.00;80.50;;;;;;5051509;28;20035;-44
2023/03/06 09:07:08;;;;;;;4.68;0.90;;;6.90;80.10;;;;;;5052328;28;20044;-42
2023/03/06 09:09:34;;;;;;;3.03;1.10;;;7.00;80.50;;;;;;5049633;28;20033;-43
2023/03/06 09:11:59;;;;;;;3.85;1.45;;;7.10;80.20;;;;;;5033546;28;20083;-44
2023/03/06 09:14:26;;;;;;;3.63;1.17;;;6.80;79.20;;;;;;5038710;28;20022;-45
2023/03/06 09:16:54;;;;;;;2.92;1.00;;;6.70;80.10;;;;;;5045827;28;20454;-42
2023/03/06 09:19:21;;;;;;;3.00;1.23;;;6.80;80.70;;;;;;5052937;28;20067;-42
2023/03/06 09:21:47;;;;;;;6.15;1.40;;;6.40;79.90;;;;;;5051426;28;20068;-42
2023/03/06 09:24:15;;;;;;;2.25;1.00;;;6.30;79.80;;;;;;5047418;28;20053;-44
2023/03/06 09:26:43;;;;;;;3.20;1.60;;;6.40;80.20;;;;;;5032131;28;20072;-43
2023/03/06 09:29:20;;;;;;;3.75;0.88;;;6.30;80.10;;;;;;5046470;28;20017;-43
2023/03/06 09:31:48;;;;;;;2.78;1.27;;;6.50;81.20;;;;;;5050370;28;20028;-43
2023/03/06 09:34:17;;;;;;;3.78;1.02;;;6.50;79.40;;;;;;5051847;28;20028;-44
2023/03/06 09:36:47;;;;;;;1.88;0.80;;;6.40;78.90;;;;;;5050551;28;20410;-43
2023/03/06 09:39:14;;;;;;;3.72;1.00;;;6.40;79.40;;;;;;5033016;28;20029;-44
2023/03/06 09:41:41;;;;;;;4.43;1.02;;;6.40;79.70;;;;;;5033436;28;20038;-44
2023/03/06 09:44:14;;;;;;;1.42;0.60;;;5.90;78.80;;;;;;5036443;28;20492;-45
2023/03/06 09:46:46;;;;;;;3.28;0.65;;;5.60;79.50;;;;;;5052766;28;20037;-44
2023/03/06 09:49:40;;;;;;;2.72;0.70;;;5.40;79.10;;;;;;5052482;28;20358;-46
2023/03/06 09:52:44;;;;;;;2.22;0.80;;;5.40;79.60;;;;;;5045867;28;20025;-45
2023/03/06 09:55:25;;;;;;;3.78;1.10;;;5.50;79.80;;;;;;5053165;28;20092;-44
2023/03/06 09:58:15;;;;;;;4.10;0.65;;;5.70;79.20;;;;;;5051914;28;20136;-46
2023/03/06 10:01:12;;;;;;;3.00;0.57;;;5.90;78.50;;;;;;5031219;28;20397;-44
2023/03/06 10:04:08;;;;;;;3.35;0.80;;;5.90;79.10;;;;;;5039895;28;20025;-45
2023/03/06 10:06:58;;;;;;;2.72;0.88;;;5.50;78.40;;;;;;5051156;28;20481;-44
2023/03/06 10:09:45;;;;;;;3.45;0.80;;;5.00;78.20;;;;;;5043728;28;20108;-45
2023/03/06 10:12:20;;;;;;;3.20;1.10;;;4.90;79.10;;;;;;5035837;28;20542;-50
2023/03/06 10:15:11;;;;;;;3.47;1.02;;;4.60;80.00;;;;;;5035021;28;20033;-44
2023/03/06 10:17:40;;;;;;;6.65;1.55;;;4.60;80.70;;;;;;5041296;28;20108;-45
2023/03/06 10:20:25;;;;;;;4.28;1.02;;;4.90;81.80;;;;;;5055768;28;20033;-45
2023/03/06 10:23:11;;;;;;;4.47;1.08;;;5.60;80.90;;;;;;5043637;28;20021;-47
2023/03/06 10:26:11;;;;;;;4.22;1.00;;;6.20;78.60;;;;;;5036378;28;20041;-45
2023/03/06 10:29:09;;;;;;;4.93;1.02;;;7.10;78.40;;;;;;5036159;28;20517;-48
2023/03/06 10:31:40;;;;;;;2.70;0.75;;;7.20;73.20;;;;;;5034559;28;20033;-46
2023/03/06 10:34:34;;;;;;;3.42;0.60;;;6.90;74.70;;;;;;5045406;28;20462;-45
2023/03/06 10:37:24;;;;;;;3.97;0.70;;;6.60;73.90;;;;;;5054325;28;20037;-45
2023/03/06 10:40:12;;;;;;;4.30;1.17;;;6.40;75.30;;;;;;5052508;28;20103;-46
2023/03/06 10:42:39;;;;;;;5.82;0.95;;;6.20;75.80;;;;;;5036061;28;20029;-44
2023/03/06 10:45:09;;;;;;;2.70;1.08;;;6.10;76.50;;;;;;5035866;28;20116;-45
2023/03/06 10:47:40;;;;;;;3.15;1.05;;;6.20;76.50;;;;;;5036046;28;20160;-46
2023/03/06 10:50:20;;;;;;;5.10;1.13;;;6.30;76.40;;;;;;5034859;28;20609;-45
2023/03/06 10:53:09;;;;;;;4.13;0.82;;;6.40;76.30;;;;;;5024923;28;20038;-46
2023/03/06 10:55:40;;;;;;;4.22;0.80;;;6.70;74.70;;;;;;5048624;28;20037;-47
2023/03/06 10:58:33;;;;;;;3.65;0.70;;;6.70;72.90;;;;;;5055574;28;20447;-46
2023/03/06 11:01:25;;;;;;;3.95;0.70;;;7.20;73.50;;;;;;5049028;28;20045;-44
2023/03/06 11:03:52;;;;;;;3.35;0.98;;;7.50;71.80;;;;;;5035301;28;20033;-46
2023/03/06 11:06:34;;;;;;;1.85;0.38;;;7.70;72.40;;;;;;5036855;28;20045;-45
2023/03/06 11:09:22;;;;;;;3.38;0.40;;;7.60;65.80;;;;;;5054491;28;20078;-44
2023/03/06 11:11:50;;;;;;;3.15;0.80;;;7.70;66.60;;;;;;5053930;28;20063;-45
2023/03/06 11:14:22;;;;;;;2.90;1.30;;;7.20;66.20;;;;;;5053004;28;20799;-44
2023/03/06 11:16:54;;;;;;;2.70;0.63;;;7.20;68.50;;;;;;5052672;28;20051;-44
2023/03/06 11:19:28;;;;;;;2.53;0.60;;;7.30;68.00;;;;;;5038527;28;20040;-43
2023/03/06 11:22:15;;;;;;;2.50;0.70;;;7.40;68.60;;;;;;5049473;28;20036;-44
2023/03/06 11:24:47;;;;;;;3.63;0.70;;;7.80;68.70;;;;;;5043567;28;20471;-46
2023/03/06 11:27:42;;;;;;;1.08;0.60;;;7.90;68.40;;;;;;5017647;28;20039;-46
2023/03/06 11:30:39;;;;;;;6.25;0.98;;;7.70;65.00;;;;;;5035077;28;20052;-45
2023/03/06 11:33:18;;;;;;;2.20;0.60;;;7.40;63.80;;;;;;5020812;28;20459;-44
2023/03/06 11:35:53;;;;;;;1.88;0.50;;;7.40;65.20;;;;;;5038176;28;20048;-46
2023/03/06 11:38:51;;;;;;;3.88;0.73;;;6.90;65.10;;;;;;5031047;28;20125;-43
2023/03/06 11:42:02;;;;;;;1.45;0.70;;;6.60;67.60;;;;;;5045639;28;20377;-44
2023/03/06 11:45:02;;;;;;;4.13;0.70;;;6.40;68.40;;;;;;5026257;28;20045;-44
2023/03/06 11:47:46;;;;;;;4.43;0.65;;;6.10;66.60;;;;;;5034079;28;20040;-44
2023/03/06 11:50:26;;;;;;;2.55;0.93;;;5.90;66.40;;;;;;5034985;28;20060;-45
2023/03/06 11:53:11;;;;;;;3.25;0.75;;;5.90;68.70;;;;;;5040231;28;20041;-43
2023/03/06 11:56:08;;;;;;;3.58;1.02;;;5.90;68.80;;;;;;5053658;28;20044;-43
2023/03/06 11:58:56;;;;;;;3.40;0.60;;;6.00;69.60;;;;;;5009672;28;20030;-45
2023/03/06 12:01:43;;;;;;;2.22;0.82;;;6.10;69.10;;;;;;5043086;28;20017;-46
2023/03/06 12:04:23;;;;;;;2.53;0.82;;;6.20;69.60;;;;;;5054426;28;20351;-44
2023/03/06 12:07:24;;;;;;;2.15;0.70;;;6.20;70.20;;;;;;5051401;28;20041;-45
2023/03/06 12:10:16;;;;;;;5.75;0.80;;;6.20;71.00;;;;;;5054031;28;20029;-44
2023/03/06 12:13:11;;;;;;;3.92;0.80;;;6.20;69.70;;;;;;5049702;28;20029;-45
2023/03/06 12:16:19;;;;;;;3.83;0.80;;;6.20;69.10;;;;;;5053348;28;20033;-44
2023/03/06 12:19:04;;;;;;;1.03;0.73;;;6.00;69.30;;;;;;5022104;28;20056;-44
2023/03/06 12:21:54;;;;;;;3.03;1.65;;;6.00;71.20;;;;;;5034345;28;20053;-44
2023/03/06 12:24:33;;;;;;;5.57;1.77;;;6.00;71.40;;;;;;5041270;28;20040;-44
2023/03/06 12:27:06;;;;;;;3.05;0.65;;;6.00;69.90;;;;;;5039235;28;20406;-44
2023/03/06 12:29:51;;;;;;;3.28;0.90;;;6.20;69.00;;;;;;5054052;28;20029;-44
2023/03/06 12:32:33;;;;;;;5.20;1.60;;;6.40;69.60;;;;;;5054038;28;20043;-44
2023/03/06 12:35:31;;;;;;;4.15;0.70;;;6.60;69.40;;;;;;5052150;28;20029;-44
2023/03/06 12:38:30;;;;;;;3.83;0.85;;;6.80;68.00;;;;;;5052275;28;20043;-44
2023/03/06 12:41:21;;;;;;;5.28;0.77;;;7.00;67.50;;;;;;5048127;28;20022;-45
2023/03/06 12:44:24;;;;;;;3.45;0.80;;;7.10;65.90;;;;;;5033884;28;20037;-44
2023/03/06 12:47:07;;;;;;;2.78;0.90;;;7.00;65.40;;;;;;5033429;28;20064;-44
2023/03/06 12:49:40;;;;;;;1.48;0.60;;;7.10;65.80;;;;;;5036294;28;20035;-44
2023/03/06 12:52:12;;;;;;;2.08;0.55;;;7.10;64.70;;;;;;5034918;28;20029;-45
2023/03/06 12:54:40;;;;;;;2.25;0.75;;;6.90;64.50;;;;;;5053283;28;20074;-45
2023/03/06 12:57:15;;;;;;;1.77;0.40;;;6.90;65.40;;;;;;5049552;28;20037;-44
2023/03/06 12:59:48;;;;;;;3.50;0.65;;;7.00;62.60;;;;;;5033656;28;20108;-43
2023/03/06 13:02:45;;;;;;;1.80;0.73;;;7.10;63.10;;;;;;5048647;28;20118;-46
2023/03/06 13:05:44;;;;;;;3.88;0.57;;;7.00;63.50;;;;;;5050078;28;20033;-46
2023/03/06 13:08:53;;;;;;;1.92;0.75;;;7.00;63.30;;;;;;5052347;28;20024;-46
2023/03/06 13:11:38;;;;;;;2.95;0.73;;;7.10;63.10;;;;;;5011158;28;20033;-46
2023/03/06 13:14:22;;;;;;;3.08;0.70;;;7.10;63.00;;;;;;5032785;28;20347;-44
2023/03/06 13:16:51;;;;;;;1.83;0.60;;;7.00;62.30;;;;;;5033459;28;20099;-44
2023/03/06 13:19:26;;;;;;;0.88;0.40;;;7.00;63.00;;;;;;5033284;28;20029;-44
2023/03/06 13:21:55;;;;;;;2.30;0.38;;;7.10;62.70;;;;;;5042523;28;20071;-49
2023/03/06 13:24:44;;;;;;;2.78;0.60;;;6.90;61.00;;;;;;5052191;28;20021;-45
2023/03/06 13:27:32;;;;;;;9.40;0.70;;;6.90;60.50;;;;;;5051162;28;20453;-45